sensor_id;sensor_type;location;lat;lon;timestamp;temperature;humidity
11059;DHT22;5582;59.272;15.220;2022-08-02T00:00:11;14.80;1.40
11059;DHT22;5582;59.272;15.220;2022-08-02T00:02:39;14.80;1.40
11059;DHT22;5582;59.272;15.220;2022-08-02T00:05:05;14.80;1.40
11059;DHT22;5582;59.272;15.220;2022-08-02T00:07:30;14.80;1.40
11059;DHT22;5582;59.272;15.220;2022-08-02T00:09:56;14.70;1.40
11059;DHT22;5582;59.272;15.220;2022-08-02T00:12:22;14.70;1.40
11059;DHT22;5582;59.272;15.220;2022-08-02T00:14:48;14.70;1.40
11059;DHT22;5582;59.272;15.220;2022-08-02T00:17:14;14.60;1.40
11059;DHT22;5582;59.272;15.220;2022-08-02T00:19:39;14.60;1.40
11059;DHT22;5582;59.272;15.220;2022-08-02T00:22:05;14.60;1.40
11059;DHT22;5582;59.272;15.220;2022-08-02T00:24:30;14.60;1.40
11059;DHT22;5582;59.272;15.220;2022-08-02T00:26:56;14.60;1.40
11059;DHT22;5582;59.272;15.220;2022-08-02T00:29:22;14.60;1.40
11059;DHT22;5582;59.272;15.220;2022-08-02T00:31:47;14.60;1.40
11059;DHT22;5582;59.272;15.220;2022-08-02T00:34:13;14.50;1.40
11059;DHT22;5582;59.272;15.220;2022-08-02T00:36:39;14.50;1.40
11059;DHT22;5582;59.272;15.220;2022-08-02T00:39:04;14.40;1.40
11059;DHT22;5582;59.272;15.220;2022-08-02T00:41:30;14.40;1.40
11059;DHT22;5582;59.272;15.220;2022-08-02T00:43:56;14.40;1.40
11059;DHT22;5582;59.272;15.220;2022-08-02T00:46:21;14.30;1.40
11059;DHT22;5582;59.272;15.220;2022-08-02T00:48:48;14.30;1.40
11059;DHT22;5582;59.272;15.220;2022-08-02T00:51:14;14.30;1.40
11059;DHT22;5582;59.272;15.220;2022-08-02T00:53:40;14.20;1.40
11059;DHT22;5582;59.272;15.220;2022-08-02T00:56:06;14.20;1.40
11059;DHT22;5582;59.272;15.220;2022-08-02T00:58:32;14.20;1.40
11059;DHT22;5582;59.272;15.220;2022-08-02T01:00:58;14.20;1.40
11059;DHT22;5582;59.272;15.220;2022-08-02T01:03:25;14.10;1.40
11059;DHT22;5582;59.272;15.220;2022-08-02T01:05:51;14.10;1.40
11059;DHT22;5582;59.272;15.220;2022-08-02T01:08:17;14.10;1.40
11059;DHT22;5582;59.272;15.220;2022-08-02T01:10:43;14.00;1.40
11059;DHT22;5582;59.272;15.220;2022-08-02T01:13:09;14.00;1.40
11059;DHT22;5582;59.272;15.220;2022-08-02T01:15:40;14.00;1.40
11059;DHT22;5582;59.272;15.220;2022-08-02T01:18:17;13.90;1.40
11059;DHT22;5582;59.272;15.220;2022-08-02T01:26:23;13.80;1.40
11059;DHT22;5582;59.272;15.220;2022-08-02T01:28:51;13.80;1.40
11059;DHT22;5582;59.272;15.220;2022-08-02T01:34:31;13.70;1.40
11059;DHT22;5582;59.272;15.220;2022-08-02T01:37:19;13.70;1.40
11059;DHT22;5582;59.272;15.220;2022-08-02T01:39:50;13.60;1.40
11059;DHT22;5582;59.272;15.220;2022-08-02T01:42:17;13.60;1.40
11059;DHT22;5582;59.272;15.220;2022-08-02T01:44:44;13.60;1.40
11059;DHT22;5582;59.272;15.220;2022-08-02T01:47:21;13.60;1.40
11059;DHT22;5582;59.272;15.220;2022-08-02T01:49:51;13.50;1.40
11059;DHT22;5582;59.272;15.220;2022-08-02T01:52:19;13.50;1.40
11059;DHT22;5582;59.272;15.220;2022-08-02T01:54:58;13.50;1.40
11059;DHT22;5582;59.272;15.220;2022-08-02T01:57:26;13.50;1.40
11059;DHT22;5582;59.272;15.220;2022-08-02T01:59:56;13.40;1.40
11059;DHT22;5582;59.272;15.220;2022-08-02T02:02:25;13.40;1.40
11059;DHT22;5582;59.272;15.220;2022-08-02T02:04:53;13.30;1.40
11059;DHT22;5582;59.272;15.220;2022-08-02T02:07:21;13.30;1.40
11059;DHT22;5582;59.272;15.220;2022-08-02T02:09:48;13.30;1.40
11059;DHT22;5582;59.272;15.220;2022-08-02T02:12:16;13.30;1.40
11059;DHT22;5582;59.272;15.220;2022-08-02T02:14:42;13.50;1.40
11059;DHT22;5582;59.272;15.220;2022-08-02T02:17:09;13.30;1.40
11059;DHT22;5582;59.272;15.220;2022-08-02T02:19:36;13.30;1.40
11059;DHT22;5582;59.272;15.220;2022-08-02T02:22:03;13.20;1.40
11059;DHT22;5582;59.272;15.220;2022-08-02T02:24:29;13.20;1.40
11059;DHT22;5582;59.272;15.220;2022-08-02T02:26:56;13.10;1.40
11059;DHT22;5582;59.272;15.220;2022-08-02T02:29:24;13.10;1.40
11059;DHT22;5582;59.272;15.220;2022-08-02T02:31:53;13.10;1.40
11059;DHT22;5582;59.272;15.220;2022-08-02T02:34:34;13.10;1.40
11059;DHT22;5582;59.272;15.220;2022-08-02T02:37:04;13.10;1.40
11059;DHT22;5582;59.272;15.220;2022-08-02T02:39:31;13.00;1.40
11059;DHT22;5582;59.272;15.220;2022-08-02T02:42:01;13.00;1.40
11059;DHT22;5582;59.272;15.220;2022-08-02T02:44:28;13.00;1.40
11059;DHT22;5582;59.272;15.220;2022-08-02T02:46:56;13.00;1.40
11059;DHT22;5582;59.272;15.220;2022-08-02T02:49:23;13.00;1.40
11059;DHT22;5582;59.272;15.220;2022-08-02T02:51:50;13.00;1.40
11059;DHT22;5582;59.272;15.220;2022-08-02T02:54:17;13.00;1.40
11059;DHT22;5582;59.272;15.220;2022-08-02T02:56:44;13.00;1.40
11059;DHT22;5582;59.272;15.220;2022-08-02T02:59:12;13.00;1.40
11059;DHT22;5582;59.272;15.220;2022-08-02T03:01:39;13.00;1.40
11059;DHT22;5582;59.272;15.220;2022-08-02T03:04:06;13.00;1.40
11059;DHT22;5582;59.272;15.220;2022-08-02T03:06:35;13.00;1.40
11059;DHT22;5582;59.272;15.220;2022-08-02T03:09:02;13.00;1.40
11059;DHT22;5582;59.272;15.220;2022-08-02T03:11:29;13.00;1.40
11059;DHT22;5582;59.272;15.220;2022-08-02T03:13:59;13.50;1.40
11059;DHT22;5582;59.272;15.220;2022-08-02T03:16:28;13.00;1.40
11059;DHT22;5582;59.272;15.220;2022-08-02T03:18:55;13.10;1.40
11059;DHT22;5582;59.272;15.220;2022-08-02T03:21:21;12.90;1.40
11059;DHT22;5582;59.272;15.220;2022-08-02T03:23:48;13.00;1.40
11059;DHT22;5582;59.272;15.220;2022-08-02T03:26:14;12.90;1.40
11059;DHT22;5582;59.272;15.220;2022-08-02T03:28:40;12.90;1.40
11059;DHT22;5582;59.272;15.220;2022-08-02T03:31:06;13.00;1.40
11059;DHT22;5582;59.272;15.220;2022-08-02T03:33:32;12.90;1.40
11059;DHT22;5582;59.272;15.220;2022-08-02T03:36:04;12.90;1.40
11059;DHT22;5582;59.272;15.220;2022-08-02T03:38:32;12.90;1.40
11059;DHT22;5582;59.272;15.220;2022-08-02T03:41:00;12.90;1.40
11059;DHT22;5582;59.272;15.220;2022-08-02T03:43:26;12.90;1.40
11059;DHT22;5582;59.272;15.220;2022-08-02T03:45:54;12.90;1.40
11059;DHT22;5582;59.272;15.220;2022-08-02T03:48:20;12.90;1.40
11059;DHT22;5582;59.272;15.220;2022-08-02T03:50:47;12.90;1.40
11059;DHT22;5582;59.272;15.220;2022-08-02T03:53:15;12.90;1.40
11059;DHT22;5582;59.272;15.220;2022-08-02T03:55:41;12.90;1.40
11059;DHT22;5582;59.272;15.220;2022-08-02T03:58:07;12.90;1.40
11059;DHT22;5582;59.272;15.220;2022-08-02T04:00:33;12.80;1.40
11059;DHT22;5582;59.272;15.220;2022-08-02T04:02:58;12.80;1.40
11059;DHT22;5582;59.272;15.220;2022-08-02T04:05:24;12.90;1.40
11059;DHT22;5582;59.272;15.220;2022-08-02T04:07:50;12.90;1.40
11059;DHT22;5582;59.272;15.220;2022-08-02T04:10:16;12.90;1.40
11059;DHT22;5582;59.272;15.220;2022-08-02T04:12:42;12.80;1.40
11059;DHT22;5582;59.272;15.220;2022-08-02T04:15:11;12.90;1.40
11059;DHT22;5582;59.272;15.220;2022-08-02T04:17:42;12.90;1.40
11059;DHT22;5582;59.272;15.220;2022-08-02T04:20:13;12.90;1.40
11059;DHT22;5582;59.272;15.220;2022-08-02T04:23:03;12.90;1.40
11059;DHT22;5582;59.272;15.220;2022-08-02T04:25:30;13.00;1.40
11059;DHT22;5582;59.272;15.220;2022-08-02T04:27:58;13.00;1.40
11059;DHT22;5582;59.272;15.220;2022-08-02T04:30:24;12.50;1.40
11059;DHT22;5582;59.272;15.220;2022-08-02T04:32:50;13.10;1.40
11059;DHT22;5582;59.272;15.220;2022-08-02T04:35:16;13.20;1.40
11059;DHT22;5582;59.272;15.220;2022-08-02T04:37:42;13.20;1.40
11059;DHT22;5582;59.272;15.220;2022-08-02T04:40:10;13.20;1.40
11059;DHT22;5582;59.272;15.220;2022-08-02T04:42:36;13.20;1.40
11059;DHT22;5582;59.272;15.220;2022-08-02T04:45:02;13.30;1.40
11059;DHT22;5582;59.272;15.220;2022-08-02T04:47:29;13.30;1.40
11059;DHT22;5582;59.272;15.220;2022-08-02T04:49:54;13.40;1.40
11059;DHT22;5582;59.272;15.220;2022-08-02T04:52:20;13.50;1.40
11059;DHT22;5582;59.272;15.220;2022-08-02T04:54:46;13.50;1.40
11059;DHT22;5582;59.272;15.220;2022-08-02T04:57:11;13.50;1.40
11059;DHT22;5582;59.272;15.220;2022-08-02T04:59:56;13.60;1.40
11059;DHT22;5582;59.272;15.220;2022-08-02T05:02:21;13.60;1.40
11059;DHT22;5582;59.272;15.220;2022-08-02T05:04:47;13.70;1.40
11059;DHT22;5582;59.272;15.220;2022-08-02T05:07:13;13.80;1.40
11059;DHT22;5582;59.272;15.220;2022-08-02T05:09:38;13.80;1.40
11059;DHT22;5582;59.272;15.220;2022-08-02T05:12:06;13.90;1.40
11059;DHT22;5582;59.272;15.220;2022-08-02T05:14:31;14.10;1.40
11059;DHT22;5582;59.272;15.220;2022-08-02T05:16:57;14.30;1.40
11059;DHT22;5582;59.272;15.220;2022-08-02T05:19:23;14.50;1.40
11059;DHT22;5582;59.272;15.220;2022-08-02T05:21:48;14.70;1.40
11059;DHT22;5582;59.272;15.220;2022-08-02T05:24:14;14.90;1.40
11059;DHT22;5582;59.272;15.220;2022-08-02T05:26:39;15.00;1.40
11059;DHT22;5582;59.272;15.220;2022-08-02T05:29:05;14.40;1.40
11059;DHT22;5582;59.272;15.220;2022-08-02T05:31:31;15.00;1.40
11059;DHT22;5582;59.272;15.220;2022-08-02T05:33:56;14.90;1.40
11059;DHT22;5582;59.272;15.220;2022-08-02T05:36:22;14.90;1.40
11059;DHT22;5582;59.272;15.220;2022-08-02T05:38:48;14.90;1.40
11059;DHT22;5582;59.272;15.220;2022-08-02T05:41:18;14.90;1.40
11059;DHT22;5582;59.272;15.220;2022-08-02T05:43:45;14.90;1.40
11059;DHT22;5582;59.272;15.220;2022-08-02T05:46:11;14.90;1.40
11059;DHT22;5582;59.272;15.220;2022-08-02T05:48:37;15.00;1.40
11059;DHT22;5582;59.272;15.220;2022-08-02T05:51:05;14.90;1.40
11059;DHT22;5582;59.272;15.220;2022-08-02T05:53:40;15.00;1.40
11059;DHT22;5582;59.272;15.220;2022-08-02T06:01:34;15.20;1.40
11059;DHT22;5582;59.272;15.220;2022-08-02T06:04:16;15.20;1.40
11059;DHT22;5582;59.272;15.220;2022-08-02T06:06:55;15.20;1.40
11059;DHT22;5582;59.272;15.220;2022-08-02T06:09:22;15.20;1.40
11059;DHT22;5582;59.272;15.220;2022-08-02T06:11:50;15.20;1.40
11059;DHT22;5582;59.272;15.220;2022-08-02T06:14:17;15.20;1.40
11059;DHT22;5582;59.272;15.220;2022-08-02T06:16:44;15.20;1.40
11059;DHT22;5582;59.272;15.220;2022-08-02T06:19:11;15.20;1.40
11059;DHT22;5582;59.272;15.220;2022-08-02T06:21:40;15.20;1.40
11059;DHT22;5582;59.272;15.220;2022-08-02T06:24:08;15.20;1.40
11059;DHT22;5582;59.272;15.220;2022-08-02T06:26:35;15.20;1.40
11059;DHT22;5582;59.272;15.220;2022-08-02T06:29:01;15.20;1.40
11059;DHT22;5582;59.272;15.220;2022-08-02T06:31:27;15.20;1.40
11059;DHT22;5582;59.272;15.220;2022-08-02T06:33:53;15.30;1.40
11059;DHT22;5582;59.272;15.220;2022-08-02T06:36:49;15.30;1.40
11059;DHT22;5582;59.272;15.220;2022-08-02T06:39:27;15.40;1.40
11059;DHT22;5582;59.272;15.220;2022-08-02T06:41:58;15.30;1.40
11059;DHT22;5582;59.272;15.220;2022-08-02T06:44:28;15.40;1.40
11059;DHT22;5582;59.272;15.220;2022-08-02T06:46:53;15.50;1.40
11059;DHT22;5582;59.272;15.220;2022-08-02T06:49:19;15.60;1.40
11059;DHT22;5582;59.272;15.220;2022-08-02T06:51:45;15.70;1.40
11059;DHT22;5582;59.272;15.220;2022-08-02T06:54:10;15.80;1.40
11059;DHT22;5582;59.272;15.220;2022-08-02T06:56:37;15.90;1.40
11059;DHT22;5582;59.272;15.220;2022-08-02T06:59:02;15.90;1.40
11059;DHT22;5582;59.272;15.220;2022-08-02T07:01:28;16.00;1.40
11059;DHT22;5582;59.272;15.220;2022-08-02T07:03:54;16.10;1.40
11059;DHT22;5582;59.272;15.220;2022-08-02T07:06:19;16.10;1.40
11059;DHT22;5582;59.272;15.220;2022-08-02T07:08:45;16.20;1.40
11059;DHT22;5582;59.272;15.220;2022-08-02T07:11:11;16.20;1.40
11059;DHT22;5582;59.272;15.220;2022-08-02T07:13:37;16.20;1.40
11059;DHT22;5582;59.272;15.220;2022-08-02T07:16:03;16.20;1.40
11059;DHT22;5582;59.272;15.220;2022-08-02T07:18:29;16.20;1.40
11059;DHT22;5582;59.272;15.220;2022-08-02T07:20:55;16.20;1.40
11059;DHT22;5582;59.272;15.220;2022-08-02T07:23:20;16.30;1.40
11059;DHT22;5582;59.272;15.220;2022-08-02T07:25:47;16.30;1.40
11059;DHT22;5582;59.272;15.220;2022-08-02T07:28:13;16.40;1.40
11059;DHT22;5582;59.272;15.220;2022-08-02T07:30:42;16.50;1.40
11059;DHT22;5582;59.272;15.220;2022-08-02T07:33:08;16.70;1.40
11059;DHT22;5582;59.272;15.220;2022-08-02T07:35:34;16.70;1.40
11059;DHT22;5582;59.272;15.220;2022-08-02T07:38:00;16.80;1.40
11059;DHT22;5582;59.272;15.220;2022-08-02T07:40:26;16.90;1.40
11059;DHT22;5582;59.272;15.220;2022-08-02T07:42:54;17.10;1.40
11059;DHT22;5582;59.272;15.220;2022-08-02T07:45:21;17.20;1.40
11059;DHT22;5582;59.272;15.220;2022-08-02T07:47:47;17.10;1.40
11059;DHT22;5582;59.272;15.220;2022-08-02T07:50:16;17.10;1.40
11059;DHT22;5582;59.272;15.220;2022-08-02T07:52:42;17.30;1.40
11059;DHT22;5582;59.272;15.220;2022-08-02T07:55:10;17.30;1.40
11059;DHT22;5582;59.272;15.220;2022-08-02T07:57:37;17.30;1.40
11059;DHT22;5582;59.272;15.220;2022-08-02T08:00:04;17.30;1.40
11059;DHT22;5582;59.272;15.220;2022-08-02T08:02:30;17.40;1.40
11059;DHT22;5582;59.272;15.220;2022-08-02T08:04:56;17.40;1.40
11059;DHT22;5582;59.272;15.220;2022-08-02T08:07:22;17.40;1.40
11059;DHT22;5582;59.272;15.220;2022-08-02T08:09:48;17.50;1.40
11059;DHT22;5582;59.272;15.220;2022-08-02T08:12:15;17.50;1.40
11059;DHT22;5582;59.272;15.220;2022-08-02T08:14:41;17.60;1.40
11059;DHT22;5582;59.272;15.220;2022-08-02T08:17:07;17.70;1.40
11059;DHT22;5582;59.272;15.220;2022-08-02T08:19:33;17.90;1.40
11059;DHT22;5582;59.272;15.220;2022-08-02T08:21:59;17.90;1.40
11059;DHT22;5582;59.272;15.220;2022-08-02T08:24:25;18.10;1.40
11059;DHT22;5582;59.272;15.220;2022-08-02T08:26:51;18.10;1.40
11059;DHT22;5582;59.272;15.220;2022-08-02T08:29:18;18.20;1.40
11059;DHT22;5582;59.272;15.220;2022-08-02T08:31:43;18.30;1.40
11059;DHT22;5582;59.272;15.220;2022-08-02T08:34:09;18.40;1.40
11059;DHT22;5582;59.272;15.220;2022-08-02T08:36:35;18.50;1.40
11059;DHT22;5582;59.272;15.220;2022-08-02T08:39:00;18.70;1.40
11059;DHT22;5582;59.272;15.220;2022-08-02T08:41:26;18.80;1.40
11059;DHT22;5582;59.272;15.220;2022-08-02T08:43:52;19.00;1.40
11059;DHT22;5582;59.272;15.220;2022-08-02T08:46:29;19.10;1.40
11059;DHT22;5582;59.272;15.220;2022-08-02T08:49:00;19.30;1.40
11059;DHT22;5582;59.272;15.220;2022-08-02T08:51:29;19.50;1.40
11059;DHT22;5582;59.272;15.220;2022-08-02T08:53:58;19.60;1.40
11059;DHT22;5582;59.272;15.220;2022-08-02T08:56:32;19.60;1.40
11059;DHT22;5582;59.272;15.220;2022-08-02T08:59:00;19.50;1.40
11059;DHT22;5582;59.272;15.220;2022-08-02T09:01:25;19.30;1.40
11059;DHT22;5582;59.272;15.220;2022-08-02T09:03:51;19.30;1.40
11059;DHT22;5582;59.272;15.220;2022-08-02T09:06:17;19.30;1.40
11059;DHT22;5582;59.272;15.220;2022-08-02T09:08:43;19.40;1.40
11059;DHT22;5582;59.272;15.220;2022-08-02T09:11:15;19.50;1.40
11059;DHT22;5582;59.272;15.220;2022-08-02T09:13:49;19.70;1.40
11059;DHT22;5582;59.272;15.220;2022-08-02T09:16:27;19.90;1.40
11059;DHT22;5582;59.272;15.220;2022-08-02T09:18:53;20.10;1.40
11059;DHT22;5582;59.272;15.220;2022-08-02T09:21:19;20.30;1.40
11059;DHT22;5582;59.272;15.220;2022-08-02T09:23:46;20.30;1.40
11059;DHT22;5582;59.272;15.220;2022-08-02T09:26:14;20.40;1.40
11059;DHT22;5582;59.272;15.220;2022-08-02T09:28:44;20.60;1.40
11059;DHT22;5582;59.272;15.220;2022-08-02T09:31:21;20.70;1.40
11059;DHT22;5582;59.272;15.220;2022-08-02T09:33:55;20.70;1.40
11059;DHT22;5582;59.272;15.220;2022-08-02T09:36:21;20.80;1.40
11059;DHT22;5582;59.272;15.220;2022-08-02T09:39:00;21.00;1.40
11059;DHT22;5582;59.272;15.220;2022-08-02T09:41:32;21.20;1.40
11059;DHT22;5582;59.272;15.220;2022-08-02T09:43:59;21.30;1.40
11059;DHT22;5582;59.272;15.220;2022-08-02T09:46:27;21.60;1.40
11059;DHT22;5582;59.272;15.220;2022-08-02T09:51:34;21.80;1.40
11059;DHT22;5582;59.272;15.220;2022-08-02T09:54:03;22.00;1.40
11059;DHT22;5582;59.272;15.220;2022-08-02T09:56:45;22.10;1.40
11059;DHT22;5582;59.272;15.220;2022-08-02T09:59:12;22.10;1.40
11059;DHT22;5582;59.272;15.220;2022-08-02T10:01:38;22.20;1.40
11059;DHT22;5582;59.272;15.220;2022-08-02T10:04:06;22.30;1.40
11059;DHT22;5582;59.272;15.220;2022-08-02T10:06:33;22.50;1.40
11059;DHT22;5582;59.272;15.220;2022-08-02T10:08:58;22.70;1.40
11059;DHT22;5582;59.272;15.220;2022-08-02T10:11:25;22.80;1.40
11059;DHT22;5582;59.272;15.220;2022-08-02T10:13:52;22.80;1.40
11059;DHT22;5582;59.272;15.220;2022-08-02T10:16:20;22.70;1.40
11059;DHT22;5582;59.272;15.220;2022-08-02T10:18:49;22.70;1.40
11059;DHT22;5582;59.272;15.220;2022-08-02T10:21:26;22.70;1.40
11059;DHT22;5582;59.272;15.220;2022-08-02T10:24:05;22.80;1.40
11059;DHT22;5582;59.272;15.220;2022-08-02T10:26:32;23.00;1.40
11059;DHT22;5582;59.272;15.220;2022-08-02T10:28:58;23.10;1.40
11059;DHT22;5582;59.272;15.220;2022-08-02T10:31:27;23.10;1.40
11059;DHT22;5582;59.272;15.220;2022-08-02T10:33:57;22.90;1.40
11059;DHT22;5582;59.272;15.220;2022-08-02T10:36:25;22.70;1.40
11059;DHT22;5582;59.272;15.220;2022-08-02T10:38:55;22.70;1.40
11059;DHT22;5582;59.272;15.220;2022-08-02T10:41:42;22.70;1.40
11059;DHT22;5582;59.272;15.220;2022-08-02T10:44:08;22.70;1.40
11059;DHT22;5582;59.272;15.220;2022-08-02T10:46:35;22.70;1.40
11059;DHT22;5582;59.272;15.220;2022-08-02T10:49:12;22.50;1.40
11059;DHT22;5582;59.272;15.220;2022-08-02T10:54:40;22.60;1.40
11059;DHT22;5582;59.272;15.220;2022-08-02T10:57:20;22.70;1.40
11059;DHT22;5582;59.272;15.220;2022-08-02T10:59:48;22.70;1.40
11059;DHT22;5582;59.272;15.220;2022-08-02T11:02:41;22.80;1.40
11059;DHT22;5582;59.272;15.220;2022-08-02T11:13:06;22.30;1.40
11059;DHT22;5582;59.272;15.220;2022-08-02T11:18:14;22.70;1.40
11059;DHT22;5582;59.272;15.220;2022-08-02T11:20:39;23.00;1.40
11059;DHT22;5582;59.272;15.220;2022-08-02T11:25:58;23.30;1.40
11059;DHT22;5582;59.272;15.220;2022-08-02T11:28:24;23.50;1.40
11059;DHT22;5582;59.272;15.220;2022-08-02T11:30:59;23.50;1.40
11059;DHT22;5582;59.272;15.220;2022-08-02T11:33:32;23.70;1.40
11059;DHT22;5582;59.272;15.220;2022-08-02T11:36:05;23.90;1.40
11059;DHT22;5582;59.272;15.220;2022-08-02T11:38:31;23.90;1.40
11059;DHT22;5582;59.272;15.220;2022-08-02T11:40:58;24.00;1.40
11059;DHT22;5582;59.272;15.220;2022-08-02T11:43:25;23.90;1.40
11059;DHT22;5582;59.272;15.220;2022-08-02T11:45:52;23.90;1.40
11059;DHT22;5582;59.272;15.220;2022-08-02T11:48:31;23.90;1.40
11059;DHT22;5582;59.272;15.220;2022-08-02T11:51:08;23.90;1.40
11059;DHT22;5582;59.272;15.220;2022-08-02T11:53:50;23.90;1.40
11059;DHT22;5582;59.272;15.220;2022-08-02T11:56:26;23.90;1.40
11059;DHT22;5582;59.272;15.220;2022-08-02T11:59:07;23.90;1.40
11059;DHT22;5582;59.272;15.220;2022-08-02T12:01:35;23.90;1.40
11059;DHT22;5582;59.272;15.220;2022-08-02T12:04:02;23.70;1.40
11059;DHT22;5582;59.272;15.220;2022-08-02T12:06:29;23.70;1.40
11059;DHT22;5582;59.272;15.220;2022-08-02T12:09:05;23.70;1.40
11059;DHT22;5582;59.272;15.220;2022-08-02T12:11:32;23.90;1.40
11059;DHT22;5582;59.272;15.220;2022-08-02T12:13:59;24.20;1.40
11059;DHT22;5582;59.272;15.220;2022-08-02T12:16:31;24.40;1.40
11059;DHT22;5582;59.272;15.220;2022-08-02T12:19:15;24.60;1.40
11059;DHT22;5582;59.272;15.220;2022-08-02T12:21:48;24.90;1.40
11059;DHT22;5582;59.272;15.220;2022-08-02T12:24:27;25.00;1.40
11059;DHT22;5582;59.272;15.220;2022-08-02T12:26:53;25.40;1.40
11059;DHT22;5582;59.272;15.220;2022-08-02T12:29:46;25.70;1.40
11059;DHT22;5582;59.272;15.220;2022-08-02T12:32:22;26.00;1.40
11059;DHT22;5582;59.272;15.220;2022-08-02T12:35:06;25.90;1.40
11059;DHT22;5582;59.272;15.220;2022-08-02T12:37:33;25.60;1.40
11059;DHT22;5582;59.272;15.220;2022-08-02T12:40:17;25.70;1.40
11059;DHT22;5582;59.272;15.220;2022-08-02T12:42:48;25.70;1.40
11059;DHT22;5582;59.272;15.220;2022-08-02T12:45:14;25.80;1.40
11059;DHT22;5582;59.272;15.220;2022-08-02T12:47:47;26.00;1.40
11059;DHT22;5582;59.272;15.220;2022-08-02T12:50:33;26.30;1.40
11059;DHT22;5582;59.272;15.220;2022-08-02T12:55:34;26.60;1.40
11059;DHT22;5582;59.272;15.220;2022-08-02T12:58:03;26.60;1.40
11059;DHT22;5582;59.272;15.220;2022-08-02T13:00:31;26.90;1.40
11059;DHT22;5582;59.272;15.220;2022-08-02T13:02:58;27.30;1.40
11059;DHT22;5582;59.272;15.220;2022-08-02T13:05:25;27.50;1.40
11059;DHT22;5582;59.272;15.220;2022-08-02T13:07:53;27.90;1.40
11059;DHT22;5582;59.272;15.220;2022-08-02T13:10:19;28.60;1.40
11059;DHT22;5582;59.272;15.220;2022-08-02T13:12:45;29.30;1.40
11059;DHT22;5582;59.272;15.220;2022-08-02T13:15:11;29.50;1.40
11059;DHT22;5582;59.272;15.220;2022-08-02T13:17:37;29.70;1.40
11059;DHT22;5582;59.272;15.220;2022-08-02T13:20:04;30.20;1.40
11059;DHT22;5582;59.272;15.220;2022-08-02T13:22:30;30.10;1.40
11059;DHT22;5582;59.272;15.220;2022-08-02T13:24:56;29.60;1.40
11059;DHT22;5582;59.272;15.220;2022-08-02T13:27:21;29.40;1.40
11059;DHT22;5582;59.272;15.220;2022-08-02T13:29:49;29.40;1.40
11059;DHT22;5582;59.272;15.220;2022-08-02T13:32:15;29.60;1.40
11059;DHT22;5582;59.272;15.220;2022-08-02T13:34:40;30.90;1.40
11059;DHT22;5582;59.272;15.220;2022-08-02T13:37:06;31.90;1.40
11059;DHT22;5582;59.272;15.220;2022-08-02T13:39:32;31.30;1.40
11059;DHT22;5582;59.272;15.220;2022-08-02T13:41:57;29.90;1.40
11059;DHT22;5582;59.272;15.220;2022-08-02T13:44:23;29.80;1.40
11059;DHT22;5582;59.272;15.220;2022-08-02T13:46:48;30.10;1.40
11059;DHT22;5582;59.272;15.220;2022-08-02T13:49:14;31.80;1.40
11059;DHT22;5582;59.272;15.220;2022-08-02T13:51:40;33.10;1.40
11059;DHT22;5582;59.272;15.220;2022-08-02T13:54:05;33.40;1.40
11059;DHT22;5582;59.272;15.220;2022-08-02T13:56:31;33.60;1.40
11059;DHT22;5582;59.272;15.220;2022-08-02T13:58:57;34.40;1.40
11059;DHT22;5582;59.272;15.220;2022-08-02T14:01:24;35.50;1.40
11059;DHT22;5582;59.272;15.220;2022-08-02T14:03:50;35.40;1.40
11059;DHT22;5582;59.272;15.220;2022-08-02T14:06:16;34.10;1.40
11059;DHT22;5582;59.272;15.220;2022-08-02T14:08:41;32.90;1.40
11059;DHT22;5582;59.272;15.220;2022-08-02T14:11:07;31.70;1.40
11059;DHT22;5582;59.272;15.220;2022-08-02T14:13:33;30.70;1.40
11059;DHT22;5582;59.272;15.220;2022-08-02T14:15:59;29.70;1.40
11059;DHT22;5582;59.272;15.220;2022-08-02T14:18:24;28.90;1.40
11059;DHT22;5582;59.272;15.220;2022-08-02T14:20:50;28.20;1.40
11059;DHT22;5582;59.272;15.220;2022-08-02T14:23:16;27.50;1.40
11059;DHT22;5582;59.272;15.220;2022-08-02T14:25:41;26.90;1.40
11059;DHT22;5582;59.272;15.220;2022-08-02T14:28:07;26.40;1.40
11059;DHT22;5582;59.272;15.220;2022-08-02T14:30:33;26.00;1.40
11059;DHT22;5582;59.272;15.220;2022-08-02T14:32:59;25.90;1.40
11059;DHT22;5582;59.272;15.220;2022-08-02T14:35:25;25.70;1.40
11059;DHT22;5582;59.272;15.220;2022-08-02T14:37:50;25.60;1.40
11059;DHT22;5582;59.272;15.220;2022-08-02T14:40:16;25.50;1.40
11059;DHT22;5582;59.272;15.220;2022-08-02T14:42:42;25.50;1.40
11059;DHT22;5582;59.272;15.220;2022-08-02T14:45:08;25.40;1.40
11059;DHT22;5582;59.272;15.220;2022-08-02T14:47:33;25.40;1.40
11059;DHT22;5582;59.272;15.220;2022-08-02T14:49:59;25.40;1.40
11059;DHT22;5582;59.272;15.220;2022-08-02T14:52:25;25.20;1.40
11059;DHT22;5582;59.272;15.220;2022-08-02T14:54:50;25.30;1.40
11059;DHT22;5582;59.272;15.220;2022-08-02T14:57:16;25.50;1.40
11059;DHT22;5582;59.272;15.220;2022-08-02T14:59:42;25.50;1.40
11059;DHT22;5582;59.272;15.220;2022-08-02T15:02:07;25.50;1.40
11059;DHT22;5582;59.272;15.220;2022-08-02T15:04:33;25.40;1.40
11059;DHT22;5582;59.272;15.220;2022-08-02T15:06:59;25.50;1.40
11059;DHT22;5582;59.272;15.220;2022-08-02T15:09:26;25.60;1.40
11059;DHT22;5582;59.272;15.220;2022-08-02T15:11:52;25.60;1.40
11059;DHT22;5582;59.272;15.220;2022-08-02T15:14:20;25.50;1.40
11059;DHT22;5582;59.272;15.220;2022-08-02T15:16:46;25.20;1.40
11059;DHT22;5582;59.272;15.220;2022-08-02T15:19:12;24.90;1.40
11059;DHT22;5582;59.272;15.220;2022-08-02T15:21:38;24.70;1.40
11059;DHT22;5582;59.272;15.220;2022-08-02T15:24:04;24.70;1.40
11059;DHT22;5582;59.272;15.220;2022-08-02T15:26:29;24.80;1.40
11059;DHT22;5582;59.272;15.220;2022-08-02T15:28:55;24.90;1.40
11059;DHT22;5582;59.272;15.220;2022-08-02T15:31:22;24.80;1.40
11059;DHT22;5582;59.272;15.220;2022-08-02T15:33:48;24.60;1.40
11059;DHT22;5582;59.272;15.220;2022-08-02T15:36:14;24.20;1.40
11059;DHT22;5582;59.272;15.220;2022-08-02T15:38:41;23.90;1.40
11059;DHT22;5582;59.272;15.220;2022-08-02T15:41:06;23.60;1.40
11059;DHT22;5582;59.272;15.220;2022-08-02T15:43:34;23.30;1.40
11059;DHT22;5582;59.272;15.220;2022-08-02T15:46:00;23.10;1.40
11059;DHT22;5582;59.272;15.220;2022-08-02T15:48:26;22.90;1.40
11059;DHT22;5582;59.272;15.220;2022-08-02T15:50:51;22.80;1.40
11059;DHT22;5582;59.272;15.220;2022-08-02T15:53:17;22.80;1.40
11059;DHT22;5582;59.272;15.220;2022-08-02T15:55:43;22.70;1.40
11059;DHT22;5582;59.272;15.220;2022-08-02T15:58:08;22.50;1.40
11059;DHT22;5582;59.272;15.220;2022-08-02T16:00:34;22.40;1.40
11059;DHT22;5582;59.272;15.220;2022-08-02T16:03:00;22.30;1.40
11059;DHT22;5582;59.272;15.220;2022-08-02T16:05:25;22.20;1.40
11059;DHT22;5582;59.272;15.220;2022-08-02T16:07:51;22.20;1.40
11059;DHT22;5582;59.272;15.220;2022-08-02T16:10:17;22.20;1.40
11059;DHT22;5582;59.272;15.220;2022-08-02T16:12:43;22.10;1.40
11059;DHT22;5582;59.272;15.220;2022-08-02T16:15:09;22.00;1.40
11059;DHT22;5582;59.272;15.220;2022-08-02T16:17:34;22.00;1.40
11059;DHT22;5582;59.272;15.220;2022-08-02T16:20:01;21.90;1.40
11059;DHT22;5582;59.272;15.220;2022-08-02T16:22:26;21.90;1.40
11059;DHT22;5582;59.272;15.220;2022-08-02T16:24:52;21.80;1.40